createdAt,value
2023-04-02T00:00:25.308Z,6.2
2023-04-02T00:01:25.296Z,6.2
2023-04-02T00:02:25.309Z,6.2
2023-04-02T00:03:25.396Z,6.2
2023-04-02T00:04:25.301Z,6.2
2023-04-02T00:05:25.340Z,6.2
2023-04-02T00:06:25.312Z,6.2
2023-04-02T00:07:25.337Z,6.2
2023-04-02T00:08:25.351Z,6.2
2023-04-02T00:09:25.356Z,6.2
2023-04-02T00:10:25.308Z,6.2
2023-04-02T00:11:25.327Z,6.2
2023-04-02T00:12:25.308Z,6.2
2023-04-02T00:13:25.361Z,6.2
2023-04-02T00:14:25.355Z,6.2
2023-04-02T00:15:25.375Z,6.2
2023-04-02T00:16:25.389Z,6.2
2023-04-02T00:17:25.358Z,6.2
2023-04-02T00:18:25.379Z,6.2
2023-04-02T00:19:25.360Z,6.2
2023-04-02T00:20:25.378Z,6.2
2023-04-02T00:21:25.360Z,6.2
2023-04-02T00:22:25.353Z,6.2
2023-04-02T00:23:25.355Z,6.2
2023-04-02T00:24:25.360Z,6.2
2023-04-02T00:25:25.384Z,6.2
2023-04-02T00:26:25.402Z,6.2
2023-04-02T00:27:25.367Z,6.2
2023-04-02T00:28:25.352Z,6.2
2023-04-02T00:29:25.358Z,6.2
2023-04-02T00:30:25.373Z,6.2
2023-04-02T00:31:25.393Z,6.2
2023-04-02T00:32:25.390Z,6.2
2023-04-02T00:33:25.351Z,6.2
2023-04-02T00:34:25.359Z,6.2
2023-04-02T00:35:25.383Z,6.2
2023-04-02T00:36:25.412Z,6.2
2023-04-02T00:37:25.381Z,6.2
2023-04-02T00:38:25.412Z,6.8
2023-04-02T00:39:25.372Z,6.8
2023-04-02T00:40:25.364Z,6.8
2023-04-02T00:41:25.384Z,6.8
2023-04-02T00:42:25.386Z,6.8
2023-04-02T00:43:25.331Z,6.8
2023-04-02T00:44:25.417Z,6.8
2023-04-02T00:45:25.408Z,6.8
2023-04-02T00:46:25.460Z,6.8
2023-04-02T00:47:25.338Z,6.8
2023-04-02T00:48:25.370Z,6.8
2023-04-02T00:49:25.374Z,6.8
2023-04-02T00:50:25.515Z,6.8
2023-04-02T00:51:25.376Z,7.3
2023-04-02T00:52:25.370Z,7.3
2023-04-02T00:53:25.381Z,7.3
2023-04-02T00:54:25.372Z,7.3
2023-04-02T00:55:25.352Z,7.3
2023-04-02T00:56:25.398Z,7.3
2023-04-02T00:57:25.503Z,7.3
2023-04-02T00:58:25.401Z,7.5
2023-04-02T00:59:25.392Z,7.5
2023-04-02T01:00:25.570Z,7.5
2023-04-02T01:01:25.478Z,7.5
2023-04-02T01:02:25.456Z,7.5
2023-04-02T01:03:25.439Z,7.5
2023-04-02T01:04:25.374Z,7.5
2023-04-02T01:05:25.393Z,7.5
2023-04-02T01:06:25.451Z,7.5
2023-04-02T01:07:25.383Z,7.5
2023-04-02T01:08:25.414Z,7.5
2023-04-02T01:09:25.425Z,7.5
2023-04-02T01:10:25.455Z,7.5
2023-04-02T01:11:25.394Z,7.5
2023-04-02T01:12:25.387Z,7.5
2023-04-02T01:13:25.386Z,7.5
2023-04-02T01:14:25.394Z,7.5
2023-04-02T01:15:25.402Z,7.5
2023-04-02T01:16:25.538Z,7.5
2023-04-02T01:17:25.437Z,7.5
2023-04-02T01:18:25.392Z,7.5
2023-04-02T01:19:25.419Z,7.5
2023-04-02T01:20:25.403Z,7.5
2023-04-02T01:21:26.410Z,7.5
2023-04-02T01:22:25.421Z,7.8
2023-04-02T01:23:25.458Z,7.8
2023-04-02T01:24:25.453Z,7.8
2023-04-02T01:25:25.416Z,7.8
2023-04-02T01:26:25.394Z,7.8
2023-04-02T01:27:25.393Z,7.8
2023-04-02T01:28:25.403Z,7.8
2023-04-02T01:29:25.439Z,7.8
2023-04-02T01:30:25.418Z,7.8
2023-04-02T01:31:25.511Z,7.8
2023-04-02T01:32:25.490Z,7.8
2023-04-02T01:33:25.438Z,7.8
2023-04-02T01:34:26.651Z,7.8
2023-04-02T01:35:25.405Z,7.8
2023-04-02T01:36:25.412Z,7.8
2023-04-02T01:37:25.408Z,7.8
2023-04-02T01:38:25.444Z,7.8
2023-04-02T01:39:25.442Z,7.8
2023-04-02T01:40:25.451Z,7.8
2023-04-02T01:41:25.433Z,7.8
2023-04-02T01:42:25.423Z,7.8
2023-04-02T01:43:25.444Z,7.8
2023-04-02T01:44:25.446Z,7.8
2023-04-02T01:45:25.538Z,7.8
2023-04-02T01:46:25.560Z,7.8
2023-04-02T01:47:25.645Z,8.3
2023-04-02T01:48:25.420Z,8.3
2023-04-02T01:49:25.458Z,8.3
2023-04-02T01:50:25.456Z,8.3
2023-04-02T01:51:25.444Z,8.3
2023-04-02T01:52:25.446Z,8.3
2023-04-02T01:53:25.496Z,8.3
2023-04-02T01:54:25.477Z,8.3
2023-04-02T01:55:25.545Z,8.2
2023-04-02T01:56:25.481Z,8.2
2023-04-02T01:57:25.597Z,8.2
2023-04-02T01:58:25.784Z,8.2
2023-04-02T01:59:25.518Z,8.2
2023-04-02T02:00:25.501Z,8.2
2023-04-02T02:01:25.584Z,8.2
2023-04-02T02:02:25.664Z,8.2
2023-04-02T02:03:25.524Z,8.2
2023-04-02T02:04:25.439Z,8.2
2023-04-02T02:05:25.639Z,8.2
2023-04-02T02:06:25.552Z,8.2
2023-04-02T02:07:25.618Z,8.2
2023-04-02T02:08:25.482Z,8.2
2023-04-02T02:09:25.441Z,8.2
2023-04-02T02:10:25.469Z,8.2
2023-04-02T02:11:25.497Z,8.2
2023-04-02T02:12:25.496Z,8.2
2023-04-02T02:13:25.455Z,8.2
2023-04-02T02:14:25.471Z,8.2
2023-04-02T02:15:25.463Z,8.2
2023-04-02T02:16:25.511Z,8.2
2023-04-02T02:17:25.517Z,8.2
2023-04-02T02:18:25.478Z,8.4
2023-04-02T02:19:25.518Z,8.4
2023-04-02T02:20:25.469Z,8.4
2023-04-02T02:21:25.456Z,8.4
2023-04-02T02:22:25.506Z,8.4
2023-04-02T02:23:25.454Z,8.4
2023-04-02T02:24:25.483Z,8.4
2023-04-02T02:25:25.474Z,8.4
2023-04-02T02:26:25.572Z,8.4
2023-04-02T02:27:25.484Z,8.4
2023-04-02T02:28:25.503Z,8.4
2023-04-02T02:29:25.466Z,8.4
2023-04-02T02:30:25.526Z,8.4
2023-04-02T02:31:25.512Z,8.4
2023-04-02T02:32:25.520Z,8.4
2023-04-02T02:33:25.524Z,8.4
2023-04-02T02:34:25.484Z,8.4
2023-04-02T02:35:25.533Z,8.4
2023-04-02T02:36:25.546Z,8.4
2023-04-02T02:37:25.526Z,8.4
2023-04-02T02:38:25.526Z,8.4
2023-04-02T02:39:25.513Z,8.4
2023-04-02T02:40:25.497Z,8.4
2023-04-02T02:41:25.526Z,8.4
2023-04-02T02:42:25.488Z,8.4
2023-04-02T02:43:25.529Z,9
2023-04-02T02:44:25.554Z,9
2023-04-02T02:45:25.522Z,9
2023-04-02T02:46:25.708Z,9
2023-04-02T02:47:25.633Z,9
2023-04-02T02:48:25.548Z,9
2023-04-02T02:49:25.541Z,9
2023-04-02T02:50:25.543Z,9
2023-04-02T02:51:25.527Z,9
2023-04-02T02:52:25.531Z,9
2023-04-02T02:53:25.539Z,9
2023-04-02T02:54:25.552Z,9
2023-04-02T02:55:25.572Z,9
2023-04-02T02:56:25.530Z,9
2023-04-02T02:57:25.587Z,9
2023-04-02T02:58:25.530Z,9
2023-04-02T02:59:25.536Z,9
2023-04-02T03:00:25.492Z,9
2023-04-02T03:01:25.554Z,9
2023-04-02T03:02:25.627Z,9
2023-04-02T03:03:25.658Z,9
2023-04-02T03:04:25.585Z,9
2023-04-02T03:05:25.601Z,9
2023-04-02T03:06:25.552Z,9
2023-04-02T03:07:25.524Z,9
2023-04-02T03:08:25.579Z,9
2023-04-02T03:09:25.535Z,9
2023-04-02T03:10:25.564Z,9
2023-04-02T03:11:25.549Z,9
2023-04-02T03:12:25.521Z,9
2023-04-02T03:13:25.641Z,9
2023-04-02T03:14:25.690Z,9
2023-04-02T03:15:25.546Z,9
2023-04-02T03:16:25.638Z,9
2023-04-02T03:17:25.575Z,9
2023-04-02T03:18:25.552Z,9
2023-04-02T03:19:25.609Z,9
2023-04-02T03:20:25.523Z,9
2023-04-02T03:21:25.556Z,9
2023-04-02T03:22:25.551Z,9.2
2023-04-02T03:23:25.642Z,9.2
2023-04-02T03:24:25.521Z,9.2
2023-04-02T03:25:25.587Z,9.2
2023-04-02T03:26:25.570Z,9.2
2023-04-02T03:27:25.532Z,9.2
2023-04-02T03:28:25.580Z,9.2
2023-04-02T03:29:25.578Z,9.2
2023-04-02T03:30:25.577Z,9.2
2023-04-02T03:31:25.579Z,9.2
2023-04-02T03:32:25.596Z,9.2
2023-04-02T03:33:25.598Z,9.2
2023-04-02T03:34:25.600Z,9.2
2023-04-02T03:35:25.569Z,9.2
2023-04-02T03:36:25.548Z,9.2
2023-04-02T03:37:25.594Z,9.2
2023-04-02T03:38:25.604Z,9.2
2023-04-02T03:39:25.622Z,9.2
2023-04-02T03:40:25.596Z,9.2
2023-04-02T03:41:25.580Z,9.2
2023-04-02T03:42:25.551Z,9.2
2023-04-02T03:43:25.596Z,9.1
2023-04-02T03:44:25.568Z,9.1
2023-04-02T03:45:25.578Z,9.1
2023-04-02T03:46:25.592Z,9.1
2023-04-02T03:47:25.675Z,9.1
2023-04-02T03:48:25.553Z,9.1
2023-04-02T03:49:25.554Z,9.1
2023-04-02T03:50:25.610Z,9.1
2023-04-02T03:51:25.548Z,9.1
2023-04-02T03:52:25.548Z,9.1
2023-04-02T03:53:25.609Z,9.1
2023-04-02T03:54:25.641Z,9.1
2023-04-02T03:55:25.559Z,9
2023-04-02T03:56:25.590Z,9
2023-04-02T03:57:25.648Z,9
2023-04-02T03:58:25.570Z,9
2023-04-02T03:59:25.626Z,9
2023-04-02T04:00:25.609Z,9
2023-04-02T04:01:25.624Z,9
2023-04-02T04:02:25.615Z,9
2023-04-02T04:03:25.602Z,9
2023-04-02T04:04:25.632Z,9
2023-04-02T04:05:25.610Z,9
2023-04-02T04:06:25.602Z,9
2023-04-02T04:07:25.611Z,9
2023-04-02T04:08:25.605Z,9
2023-04-02T04:09:25.613Z,9
2023-04-02T04:10:25.657Z,9
2023-04-02T04:11:25.625Z,8.8
2023-04-02T04:12:25.635Z,8.8
2023-04-02T04:13:25.636Z,8.8
2023-04-02T04:14:25.579Z,8.8
2023-04-02T04:15:25.663Z,8.8
2023-04-02T04:16:25.675Z,8.8
2023-04-02T04:17:25.641Z,8.8
2023-04-02T04:18:25.584Z,8.8
2023-04-02T04:19:25.630Z,8.8
2023-04-02T04:20:25.642Z,8.8
2023-04-02T04:21:25.617Z,8.8
2023-04-02T04:22:25.681Z,8.8
2023-04-02T04:23:25.722Z,8.8
2023-04-02T04:24:25.629Z,8.8
2023-04-02T04:25:25.650Z,8.8
2023-04-02T04:26:25.629Z,8.8
2023-04-02T04:27:25.599Z,8.8
2023-04-02T04:28:25.649Z,8.8
2023-04-02T04:29:25.664Z,8.8
2023-04-02T04:30:25.650Z,8.8
2023-04-02T04:31:26.163Z,8.8
2023-04-02T04:32:25.631Z,8.8
2023-04-02T04:33:25.626Z,8.8
2023-04-02T04:34:25.620Z,8.8
2023-04-02T04:35:25.689Z,8.7
2023-04-02T04:36:25.656Z,8.7
2023-04-02T04:37:25.619Z,8.7
2023-04-02T04:38:25.609Z,8.7
2023-04-02T04:39:25.647Z,8.7
2023-04-02T04:40:25.659Z,8.7
2023-04-02T04:41:25.745Z,8.7
2023-04-02T04:42:25.654Z,8.7
2023-04-02T04:43:25.653Z,8.7
2023-04-02T04:44:25.614Z,8.7
2023-04-02T04:45:25.669Z,8.7
2023-04-02T04:46:25.812Z,8.7
2023-04-02T04:47:25.706Z,8.7
2023-04-02T04:48:25.636Z,8.7
2023-04-02T04:49:25.680Z,8.7
2023-04-02T04:50:25.649Z,8.7
2023-04-02T04:51:25.656Z,8.7
2023-04-02T04:52:25.698Z,8.7
2023-04-02T04:53:25.664Z,8.7
2023-04-02T04:54:25.668Z,8.7
2023-04-02T04:55:25.646Z,8.7
2023-04-02T04:56:25.655Z,8.7
2023-04-02T04:57:25.787Z,8.7
2023-04-02T04:58:25.676Z,8.7
2023-04-02T04:59:25.718Z,8.7
2023-04-02T05:00:25.668Z,8.7
2023-04-02T05:01:25.690Z,8.7
2023-04-02T05:02:25.717Z,8.7
2023-04-02T05:03:25.703Z,8.7
2023-04-02T05:04:25.719Z,8.7
2023-04-02T05:05:25.669Z,8.7
2023-04-02T05:06:25.687Z,8.7
2023-04-02T05:07:25.662Z,8.7
2023-04-02T05:08:25.723Z,8.7
2023-04-02T05:09:25.672Z,8.7
2023-04-02T05:10:25.682Z,8.7
2023-04-02T05:11:25.673Z,8.7
2023-04-02T05:12:25.690Z,8.7
2023-04-02T05:13:25.690Z,8.7
2023-04-02T05:14:25.723Z,8.7
2023-04-02T05:15:25.743Z,8.7
2023-04-02T05:16:25.775Z,8.7
2023-04-02T05:17:25.694Z,8.7
2023-04-02T05:18:25.717Z,8.7
2023-04-02T05:19:25.694Z,8.7
2023-04-02T05:20:25.697Z,8.7
2023-04-02T05:21:25.715Z,8.7
2023-04-02T05:22:25.686Z,8.7
2023-04-02T05:23:25.700Z,8.7
2023-04-02T05:24:25.696Z,8.7
2023-04-02T05:25:25.763Z,8.7
2023-04-02T05:26:25.718Z,8.7
2023-04-02T05:27:25.717Z,8.7
2023-04-02T05:28:25.669Z,8.7
2023-04-02T05:29:25.701Z,8.7
2023-04-02T05:30:25.742Z,8.7
2023-04-02T05:31:25.689Z,8.7
2023-04-02T05:32:25.736Z,8.7
2023-04-02T05:33:25.702Z,9
2023-04-02T05:34:25.732Z,9
2023-04-02T05:35:25.720Z,9
2023-04-02T05:36:25.793Z,9
2023-04-02T05:37:25.697Z,9
2023-04-02T05:38:25.720Z,9.1
2023-04-02T05:39:25.727Z,9.1
2023-04-02T05:40:25.722Z,9.1
2023-04-02T05:41:25.739Z,9.1
2023-04-02T05:42:25.714Z,9.1
2023-04-02T05:43:25.729Z,9.1
2023-04-02T05:44:25.735Z,9.1
2023-04-02T05:45:25.738Z,9.1
2023-04-02T05:46:25.752Z,9.1
2023-04-02T05:47:25.893Z,9.1
2023-04-02T05:48:25.734Z,9.1
2023-04-02T05:49:25.705Z,9.1
2023-04-02T05:50:25.705Z,9.1
2023-04-02T05:51:25.742Z,9.1
2023-04-02T05:52:25.765Z,9.1
2023-04-02T05:53:25.773Z,9.1
2023-04-02T05:54:25.767Z,9.1
2023-04-02T05:55:25.757Z,9.1
2023-04-02T05:56:25.723Z,9.1
2023-04-02T05:57:39.479Z,9.1
2023-04-02T05:59:25.799Z,9.1
2023-04-02T06:00:25.728Z,9.1
2023-04-02T06:01:25.747Z,9.1
2023-04-02T06:02:25.855Z,9.1
2023-04-02T06:03:25.840Z,9.1
2023-04-02T06:04:25.755Z,9.1
2023-04-02T06:05:25.749Z,9.1
2023-04-02T06:06:25.761Z,9.1
2023-04-02T06:07:25.769Z,9.6
2023-04-02T06:08:25.770Z,9.6
2023-04-02T06:09:25.790Z,9.6
2023-04-02T06:10:25.798Z,9.6
2023-04-02T06:11:25.772Z,9.6
2023-04-02T06:12:25.781Z,9.6
2023-04-02T06:13:25.839Z,9.6
2023-04-02T06:14:25.820Z,9.6
2023-04-02T06:15:25.828Z,9.6
2023-04-02T06:16:25.829Z,9.6
2023-04-02T06:17:25.819Z,9.6
2023-04-02T06:18:25.794Z,9.6
2023-04-02T06:19:25.811Z,9.6
2023-04-02T06:20:25.794Z,9.6
2023-04-02T06:21:25.807Z,9.6
2023-04-02T06:22:25.799Z,9.6
2023-04-02T06:23:25.792Z,9.6
2023-04-02T06:24:25.846Z,9.6
2023-04-02T06:25:25.784Z,9.6
2023-04-02T06:26:25.772Z,9.9
2023-04-02T06:27:25.819Z,9.9
2023-04-02T06:28:25.827Z,9.9
2023-04-02T06:29:25.856Z,9.9
2023-04-02T06:30:25.804Z,9.9
2023-04-02T06:31:26.816Z,9.9
2023-04-02T06:32:25.847Z,9.9
2023-04-02T06:33:25.832Z,9.9
2023-04-02T06:34:25.841Z,9.9
2023-04-02T06:35:25.845Z,9.9
2023-04-02T06:36:25.830Z,9.9
2023-04-02T06:37:25.809Z,9.9
2023-04-02T06:38:25.810Z,9.9
2023-04-02T06:39:25.846Z,9.9
2023-04-02T06:40:25.855Z,9.9
2023-04-02T06:41:25.861Z,9.9
2023-04-02T06:42:25.830Z,9.9
2023-04-02T06:43:25.820Z,9.9
2023-04-02T06:44:25.809Z,9.9
2023-04-02T06:45:25.833Z,9.9
2023-04-02T06:46:25.875Z,9.9
2023-04-02T06:47:25.853Z,9.9
2023-04-02T06:48:25.832Z,9.9
2023-04-02T06:49:25.873Z,9.9
2023-04-02T06:50:25.844Z,9.9
2023-04-02T06:51:25.879Z,9.9
2023-04-02T06:52:25.836Z,9.9
2023-04-02T06:53:25.848Z,9.9
2023-04-02T06:54:25.896Z,9.9
2023-04-02T06:55:25.958Z,9.9
2023-04-02T06:56:25.858Z,9.9
2023-04-02T06:57:25.905Z,9.9
2023-04-02T06:58:25.865Z,9.9
2023-04-02T06:59:25.847Z,9.9
2023-04-02T07:00:25.922Z,9.9
2023-04-02T07:01:25.895Z,9.9
2023-04-02T07:02:25.903Z,9.9
2023-04-02T07:03:25.853Z,9.9
2023-04-02T07:04:25.868Z,9.9
2023-04-02T07:05:25.914Z,9.9
2023-04-02T07:06:25.869Z,9.9
2023-04-02T07:07:25.849Z,9.9
2023-04-02T07:08:25.907Z,9.9
2023-04-02T07:09:25.876Z,9.9
2023-04-02T07:10:26.053Z,9.9
2023-04-02T07:11:25.856Z,9.9
2023-04-02T07:12:25.846Z,9.9
2023-04-02T07:13:25.851Z,9.9
2023-04-02T07:14:25.829Z,9.9
2023-04-02T07:15:25.826Z,9.9
2023-04-02T07:16:25.881Z,9.9
2023-04-02T07:17:25.880Z,9.9
2023-04-02T07:18:25.866Z,10.4
2023-04-02T07:19:25.864Z,10.4
2023-04-02T07:20:25.857Z,10.4
2023-04-02T07:21:25.899Z,10.4
2023-04-02T07:22:25.886Z,10.4
2023-04-02T07:23:25.861Z,10.4
2023-04-02T07:24:25.852Z,10.4
2023-04-02T07:25:25.860Z,10.4
2023-04-02T07:26:25.909Z,10.4
2023-04-02T07:27:25.845Z,10.4
2023-04-02T07:28:25.832Z,10.4
2023-04-02T07:29:25.876Z,10.9
2023-04-02T07:30:25.875Z,10.9
2023-04-02T07:31:25.983Z,11
2023-04-02T07:32:25.935Z,11
2023-04-02T07:33:25.885Z,11
2023-04-02T07:34:25.853Z,11
2023-04-02T07:35:25.840Z,11
2023-04-02T07:36:25.877Z,11
2023-04-02T07:37:25.858Z,11
2023-04-02T07:38:25.933Z,11
2023-04-02T07:39:25.889Z,11
2023-04-02T07:40:25.848Z,11
2023-04-02T07:41:25.846Z,11
2023-04-02T07:42:25.885Z,11.4
2023-04-02T07:43:25.879Z,11.4
2023-04-02T07:44:25.903Z,11.4
2023-04-02T07:45:25.849Z,11.4
2023-04-02T07:46:25.969Z,11.4
2023-04-02T07:47:25.902Z,11.4
2023-04-02T07:48:25.905Z,11.4
2023-04-02T07:49:25.861Z,11.4
2023-04-02T07:50:25.868Z,11.4
2023-04-02T07:51:25.858Z,11.4
2023-04-02T07:52:25.905Z,11.9
2023-04-02T07:53:25.866Z,11.9
2023-04-02T07:54:25.866Z,11.9
2023-04-02T07:55:25.981Z,11.9
2023-04-02T07:56:25.869Z,11.9
2023-04-02T07:57:25.885Z,11.9
2023-04-02T07:58:25.870Z,11.9
2023-04-02T07:59:25.865Z,11.9
2023-04-02T08:00:25.873Z,12.5
2023-04-02T08:01:26.030Z,12.5
2023-04-02T08:02:25.905Z,12.5
2023-04-02T08:03:25.970Z,12.5
2023-04-02T08:04:25.865Z,12.5
2023-04-02T08:05:25.873Z,12.5
2023-04-02T08:06:25.912Z,12.5
2023-04-02T08:07:25.911Z,12.5
2023-04-02T08:08:25.892Z,12.5
2023-04-02T08:09:25.913Z,12.5
2023-04-02T08:10:25.864Z,12.5
2023-04-02T08:11:25.918Z,12.5
2023-04-02T08:12:25.914Z,12.5
2023-04-02T08:13:25.899Z,12.5
2023-04-02T08:14:25.934Z,12.5
2023-04-02T08:15:25.924Z,12.5
2023-04-02T08:16:25.985Z,12.5
2023-04-02T08:17:25.905Z,12.5
2023-04-02T08:18:25.923Z,12.5
2023-04-02T08:19:25.933Z,12.5
2023-04-02T08:20:25.939Z,12.5
2023-04-02T08:21:25.936Z,12.5
2023-04-02T08:22:25.918Z,12.5
2023-04-02T08:23:25.923Z,12.5
2023-04-02T08:24:25.964Z,13
2023-04-02T08:25:25.926Z,13
2023-04-02T08:26:25.928Z,13
2023-04-02T08:27:25.954Z,13
2023-04-02T08:28:25.920Z,13
2023-04-02T08:29:25.935Z,13
2023-04-02T08:30:25.935Z,13
2023-04-02T08:31:25.971Z,13
2023-04-02T08:32:25.952Z,13
2023-04-02T08:33:25.932Z,13
2023-04-02T08:34:25.977Z,13
2023-04-02T08:35:25.950Z,13
2023-04-02T08:36:25.995Z,13
2023-04-02T08:37:25.954Z,13
2023-04-02T08:38:25.964Z,13
2023-04-02T08:39:25.943Z,13
2023-04-02T08:40:25.978Z,13
2023-04-02T08:41:25.984Z,13
2023-04-02T08:42:25.986Z,13
2023-04-02T08:43:25.976Z,13
2023-04-02T08:44:25.964Z,13
2023-04-02T08:45:25.947Z,13
2023-04-02T08:46:25.978Z,13
2023-04-02T08:47:26.085Z,13.5
2023-04-02T08:48:25.941Z,13.5
2023-04-02T08:49:25.942Z,13.5
2023-04-02T08:50:25.977Z,13.5
2023-04-02T08:51:25.941Z,13.5
2023-04-02T08:52:25.959Z,13.5
2023-04-02T08:53:25.996Z,13.5
2023-04-02T08:54:25.956Z,13.5
2023-04-02T08:55:25.963Z,13.5
2023-04-02T08:56:25.976Z,13.5
2023-04-02T08:57:25.983Z,13.5
2023-04-02T08:58:25.988Z,13.5
2023-04-02T08:59:29.104Z,13.5
2023-04-02T09:00:25.959Z,13.5
2023-04-02T09:01:25.989Z,13.5
2023-04-02T09:02:26.026Z,13.5
2023-04-02T09:03:25.976Z,13.5
2023-04-02T09:04:26.039Z,13.5
2023-04-02T09:05:25.953Z,13.5
2023-04-02T09:06:25.985Z,13.5
2023-04-02T09:07:25.966Z,13.5
2023-04-02T09:08:25.997Z,14
2023-04-02T09:09:26.016Z,14
2023-04-02T09:10:25.967Z,14
2023-04-02T09:11:25.981Z,14
2023-04-02T09:12:25.969Z,14
2023-04-02T09:13:25.956Z,14.6
2023-04-02T09:14:25.983Z,14.6
2023-04-02T09:15:25.986Z,14.6
2023-04-02T09:16:26.017Z,14.6
2023-04-02T09:17:26.004Z,14.6
2023-04-02T09:18:26.032Z,14.8
2023-04-02T09:19:26.021Z,14.8
2023-04-02T09:20:25.986Z,14.8
2023-04-02T09:21:25.977Z,14.8
2023-04-02T09:22:26.003Z,14.8
2023-04-02T09:23:26.109Z,14.8
2023-04-02T09:24:26.079Z,14.8
2023-04-02T09:25:26.052Z,14.8
2023-04-02T09:26:26.004Z,14.8
2023-04-02T09:27:26.040Z,14.8
2023-04-02T09:28:26.007Z,14.8
2023-04-02T09:29:26.055Z,14.8
2023-04-02T09:30:26.015Z,15.1
2023-04-02T09:31:26.042Z,15.1
2023-04-02T09:32:26.032Z,15.1
2023-04-02T09:33:26.038Z,15.1
2023-04-02T09:34:26.027Z,15.1
2023-04-02T09:35:27.047Z,15.1
2023-04-02T09:36:26.117Z,15.1
2023-04-02T09:37:26.040Z,15.1
2023-04-02T09:38:26.013Z,15.1
2023-04-02T09:39:26.058Z,15.1
2023-04-02T09:40:26.033Z,15.1
2023-04-02T09:41:26.102Z,15.1
2023-04-02T09:42:26.031Z,15.1
2023-04-02T09:43:26.086Z,15.1
2023-04-02T09:44:26.091Z,15.1
2023-04-02T09:45:26.102Z,15.1
2023-04-02T09:46:26.202Z,15.1
2023-04-02T09:47:26.115Z,15.1
2023-04-02T09:48:26.087Z,15.1
2023-04-02T09:49:26.071Z,15.1
2023-04-02T09:50:26.043Z,15.1
2023-04-02T09:51:26.063Z,15.1
2023-04-02T09:52:26.057Z,15.6
2023-04-02T09:53:26.055Z,15.6
2023-04-02T09:54:26.119Z,15.6
2023-04-02T09:55:26.119Z,15.6
2023-04-02T09:56:26.091Z,15.6
2023-04-02T09:57:26.090Z,15.6
2023-04-02T09:58:26.118Z,15.6
2023-04-02T09:59:26.062Z,15.6
2023-04-02T10:00:31.985Z,15.6
2023-04-02T10:01:26.220Z,16.1
2023-04-02T10:02:26.114Z,16.1
2023-04-02T10:03:26.147Z,16.1
2023-04-02T10:04:26.419Z,16.1
2023-04-02T10:05:39.410Z,16.1
2023-04-02T10:06:26.077Z,16.1
2023-04-02T10:07:26.082Z,16.1
2023-04-02T10:08:26.132Z,16.1
2023-04-02T10:09:26.164Z,16.1
2023-04-02T10:10:26.387Z,16.3
2023-04-02T10:11:30.832Z,16.3
2023-04-02T10:12:26.154Z,16.3
2023-04-02T10:13:26.110Z,16.3
2023-04-02T10:14:26.100Z,16.3
2023-04-02T10:15:26.137Z,16.3
2023-04-02T10:16:27.090Z,16.3
2023-04-02T10:17:26.182Z,16.3
2023-04-02T10:18:26.126Z,16.3
2023-04-02T10:19:26.126Z,16.3
2023-04-02T10:20:26.150Z,16.3
2023-04-02T10:21:26.203Z,16.3
2023-04-02T10:22:26.131Z,16.3
2023-04-02T10:23:26.187Z,16.3
2023-04-02T10:24:26.133Z,15.6
2023-04-02T10:25:26.145Z,15.6
2023-04-02T10:26:26.171Z,15.6
2023-04-02T10:27:26.143Z,15.6
2023-04-02T10:28:26.159Z,15.6
2023-04-02T10:29:26.135Z,15.6
2023-04-02T10:30:26.189Z,15.6
2023-04-02T10:31:26.162Z,15.1
2023-04-02T10:32:26.242Z,15.1
2023-04-02T10:33:26.162Z,15.1
2023-04-02T10:34:26.120Z,15.1
2023-04-02T10:35:26.143Z,15.1
2023-04-02T10:36:26.201Z,15.1
2023-04-02T10:37:26.141Z,15.1
2023-04-02T10:38:26.161Z,15.1
2023-04-02T10:39:26.191Z,14.5
2023-04-02T10:40:26.243Z,14.5
2023-04-02T10:41:26.192Z,14.5
2023-04-02T10:42:26.202Z,14.5
2023-04-02T10:43:26.210Z,14.5
2023-04-02T10:44:26.244Z,14.5
2023-04-02T10:45:26.186Z,14.5
2023-04-02T10:46:26.170Z,14.5
2023-04-02T10:47:26.199Z,14.5
2023-04-02T10:48:26.251Z,14.5
2023-04-02T10:49:26.313Z,14.5
2023-04-02T10:50:26.237Z,14.5
2023-04-02T10:51:26.211Z,14.5
2023-04-02T10:52:26.219Z,14.5
2023-04-02T10:53:26.212Z,14.5
2023-04-02T10:54:26.174Z,14.5
2023-04-02T10:55:26.235Z,14.5
2023-04-02T10:56:26.223Z,14.5
2023-04-02T10:57:26.242Z,14.5
2023-04-02T10:58:26.254Z,14.5
2023-04-02T10:59:26.213Z,14.5
2023-04-02T11:00:26.220Z,14.5
2023-04-02T11:01:26.251Z,14.5
2023-04-02T11:02:26.284Z,14.5
2023-04-02T11:03:26.324Z,14.5
2023-04-02T11:04:26.242Z,14.5
2023-04-02T11:05:26.275Z,14.5
2023-04-02T11:06:26.230Z,14.5
2023-04-02T11:07:26.170Z,14.5
2023-04-02T11:08:26.216Z,14.5
2023-04-02T11:09:26.221Z,14.5
2023-04-02T11:10:26.236Z,14.6
2023-04-02T11:11:26.196Z,14.6
2023-04-02T11:12:26.185Z,14.6
2023-04-02T11:13:26.192Z,14.6
2023-04-02T11:14:26.212Z,14.6
2023-04-02T11:15:26.261Z,14.6
2023-04-02T11:16:26.262Z,14.6
2023-04-02T11:17:26.252Z,14.6
2023-04-02T11:18:26.226Z,14.6
2023-04-02T11:19:26.234Z,14.6
2023-04-02T11:20:26.237Z,14.6
2023-04-02T11:21:26.234Z,14.6
2023-04-02T11:22:26.206Z,14.6
2023-04-02T11:23:26.223Z,14.6
2023-04-02T11:24:26.278Z,14.6
2023-04-02T11:25:26.214Z,14.6
2023-04-02T11:26:26.272Z,14.6
2023-04-02T11:27:26.277Z,14.6
2023-04-02T11:28:26.327Z,14.6
2023-04-02T11:29:26.225Z,14.6
2023-04-02T11:30:26.283Z,14.6
2023-04-02T11:31:26.227Z,15
2023-04-02T11:32:26.269Z,15
2023-04-02T11:33:34.138Z,15
2023-04-02T11:34:26.294Z,15
2023-04-02T11:35:26.252Z,15
2023-04-02T11:36:26.215Z,15
2023-04-02T11:37:26.257Z,15
2023-04-02T11:38:26.250Z,15
2023-04-02T11:39:26.249Z,15.5
2023-04-02T11:40:26.261Z,15.5
2023-04-02T11:41:26.262Z,15.5
2023-04-02T11:42:26.258Z,15.5
2023-04-02T11:43:26.248Z,15.5
2023-04-02T11:44:26.280Z,15.5
2023-04-02T11:45:26.324Z,15.5
2023-04-02T11:46:26.409Z,16
2023-04-02T11:47:26.305Z,16
2023-04-02T11:48:26.280Z,16
2023-04-02T11:49:26.247Z,16
2023-04-02T11:50:26.381Z,16
2023-04-02T11:51:26.256Z,16
2023-04-02T11:52:26.249Z,16.5
2023-04-02T11:53:26.273Z,16.5
2023-04-02T11:54:26.245Z,16.5
2023-04-02T11:55:26.264Z,16.5
2023-04-02T11:56:26.339Z,16.5
2023-04-02T11:57:26.347Z,16.5
2023-04-02T11:58:26.272Z,16.5
2023-04-02T11:59:26.256Z,16.5
2023-04-02T12:00:26.307Z,16.5
2023-04-02T12:01:26.264Z,16.5
2023-04-02T12:02:26.367Z,16.5
2023-04-02T12:03:26.302Z,16.7
2023-04-02T12:04:26.273Z,16.7
2023-04-02T12:05:26.387Z,16.7
2023-04-02T12:06:26.263Z,16.7
2023-04-02T12:07:26.302Z,16.7
2023-04-02T12:08:26.277Z,16.7
2023-04-02T12:09:26.338Z,16.7
2023-04-02T12:10:26.277Z,16.7
2023-04-02T12:11:26.263Z,16.7
2023-04-02T12:12:26.327Z,16.7
2023-04-02T12:13:26.268Z,16.7
2023-04-02T12:14:26.276Z,16.7
2023-04-02T12:15:26.278Z,16.7
2023-04-02T12:16:26.349Z,16.7
2023-04-02T12:17:26.287Z,16.7
2023-04-02T12:18:26.229Z,16.7
2023-04-02T12:19:26.277Z,16.7
2023-04-02T12:20:26.263Z,16
2023-04-02T12:21:26.279Z,16
2023-04-02T12:22:26.340Z,16
2023-04-02T12:23:26.368Z,16
2023-04-02T12:24:26.312Z,16
2023-04-02T12:25:26.295Z,16
2023-04-02T12:26:26.488Z,16
2023-04-02T12:27:26.301Z,16
2023-04-02T12:28:26.309Z,15.4
2023-04-02T12:29:26.343Z,15.4
2023-04-02T12:30:26.268Z,15.4
2023-04-02T12:31:26.335Z,15.4
2023-04-02T12:32:27.826Z,15.4
2023-04-02T12:33:26.277Z,15.4
2023-04-02T12:34:26.238Z,15.4
2023-04-02T12:35:26.337Z,15.4
2023-04-02T12:36:26.288Z,15.4
2023-04-02T12:37:26.297Z,15.4
2023-04-02T12:38:26.264Z,15.4
2023-04-02T12:39:28.077Z,15.4
2023-04-02T12:40:26.268Z,15.4
2023-04-02T12:41:26.308Z,15.4
2023-04-02T12:42:26.268Z,15.4
2023-04-02T12:43:26.295Z,15.4
2023-04-02T12:44:26.268Z,15.4
2023-04-02T12:45:29.171Z,15.7
2023-04-02T12:46:26.342Z,15.7
2023-04-02T12:47:26.326Z,15.7
2023-04-02T12:48:26.282Z,15.7
2023-04-02T12:49:26.281Z,15.7
2023-04-02T12:50:26.286Z,15.7
2023-04-02T12:51:28.309Z,15.7
2023-04-02T12:52:26.266Z,15.7
2023-04-02T12:53:26.274Z,15.7
2023-04-02T12:54:26.304Z,15.7
2023-04-02T12:55:26.264Z,15.7
2023-04-02T12:56:26.324Z,16.2
2023-04-02T12:57:26.368Z,16.2
2023-04-02T12:58:26.281Z,16.3
2023-04-02T12:59:26.297Z,16.3
2023-04-02T13:00:26.261Z,16.3
2023-04-02T13:01:26.312Z,16.3
2023-04-02T13:02:26.351Z,16.3
2023-04-02T13:03:28.642Z,16.3
2023-04-02T13:04:26.270Z,16.3
2023-04-02T13:05:26.373Z,16.3
2023-04-02T13:06:26.281Z,16.3
2023-04-02T13:07:26.280Z,16.3
2023-04-02T13:08:26.285Z,16.3
2023-04-02T13:09:28.526Z,16.8
2023-04-02T13:10:26.288Z,16.8
2023-04-02T13:11:26.309Z,16.8
2023-04-02T13:12:26.276Z,16.8
2023-04-02T13:13:26.337Z,16.8
2023-04-02T13:14:26.276Z,16.8
2023-04-02T13:15:27.236Z,16.8
2023-04-02T13:16:26.353Z,16.8
2023-04-02T13:17:26.318Z,16.8
2023-04-02T13:18:26.284Z,16.8
2023-04-02T13:19:26.329Z,16.8
2023-04-02T13:20:26.273Z,16.8
2023-04-02T13:21:28.126Z,16.8
2023-04-02T13:22:26.281Z,16.8
2023-04-02T13:23:26.280Z,16.8
2023-04-02T13:24:26.286Z,16.8
2023-04-02T13:25:26.263Z,16.8
2023-04-02T13:26:26.269Z,16.8
2023-04-02T13:27:26.270Z,16.8
2023-04-02T13:28:26.289Z,16.8
2023-04-02T13:29:26.297Z,16.8
2023-04-02T13:30:26.493Z,17
2023-04-02T13:31:26.311Z,17
2023-04-02T13:32:26.301Z,17
2023-04-02T13:33:26.270Z,17
2023-04-02T13:34:26.297Z,17
2023-04-02T13:35:26.281Z,17
2023-04-02T13:36:26.331Z,17
2023-04-02T13:37:26.352Z,17
2023-04-02T13:38:26.345Z,17
2023-04-02T13:39:26.285Z,17
2023-04-02T13:40:26.276Z,17
2023-04-02T13:41:26.280Z,17
2023-04-02T13:42:26.275Z,17
2023-04-02T13:43:26.269Z,17